Terminal Aerodrome Forecast
Issued by NWS

Home | Current Version | Previous Version | Text Only | Print | Product List | Glossary On
Versions: 1 2 3 4 5 6 7 8 9 10 11 12 13 14 15 16 17 18 19
000
FTUS42 KFFC 012355 AAA
TAFRYY
TAF AMD
KRYY 012355Z 0200/0224 10004KT 6SM BR OVC010
     FM020200 00000KT 5SM -DZ OVC008
     FM020500 00000KT 4SM -RA OVC006
     FM020700 VRB03KT 1SM -DZ OVC004
     FM021500 28004KT 4SM -RA OVC007
     FM021900 31005KT P6SM VCSH BKN012
     FM022300 34003KT 6SM BR OVC009=

USA.gov is the U.S. government's official web portal to all federal, state and local government web resources and services.